Time;durP1;ratioP1;P1;durP2;ratioP2;P2;SDS_P1;SDS_P2;PMS_P1;PMS_P2;Temp;Humidity;BMP_temperature;BMP_pressure;BME280_temperature;BME280_humidity;BME280_pressure;Samples;Min_cycle;Max_cycle;Signal;HPM_P1;HPM_P2
2024/01/20 00:00:32;;;;;;;15.00;4.50;;;1.20;78.20;;;;;;5041966;28;20048;-76
2024/01/20 00:02:57;;;;;;;16.00;4.60;;;1.20;78.40;;;;;;5025038;28;20045;-76
2024/01/20 00:05:23;;;;;;;14.90;4.97;;;1.20;78.40;;;;;;5043771;28;20540;-78
2024/01/20 00:07:49;;;;;;;15.83;4.83;;;1.10;78.20;;;;;;5040358;28;20403;-75
2024/01/20 00:10:14;;;;;;;14.50;4.97;;;1.00;78.30;;;;;;5046504;28;20091;-76
2024/01/20 00:12:42;;;;;;;15.03;5.60;;;1.00;78.30;;;;;;5043873;28;20107;-75
2024/01/20 00:15:08;;;;;;;13.30;5.20;;;0.90;78.50;;;;;;5037073;28;20068;-77
2024/01/20 00:17:36;;;;;;;14.63;5.27;;;0.80;78.70;;;;;;5018337;28;20041;-75
2024/01/20 00:20:02;;;;;;;17.83;5.40;;;0.80;78.90;;;;;;5040663;28;20171;-78
2024/01/20 00:22:28;;;;;;;18.83;5.33;;;0.70;78.90;;;;;;5018547;28;20048;-76
2024/01/20 00:24:53;;;;;;;19.23;5.47;;;0.60;78.90;;;;;;5035505;28;20054;-76
2024/01/20 00:27:19;;;;;;;17.70;6.23;;;0.60;79.00;;;;;;5036296;28;20049;-76
2024/01/20 00:29:45;;;;;;;15.40;6.10;;;0.50;79.40;;;;;;5029519;28;20982;-75
2024/01/20 00:32:10;;;;;;;14.00;5.70;;;0.40;79.30;;;;;;5036830;28;20377;-76
2024/01/20 00:34:36;;;;;;;21.00;6.83;;;0.40;79.70;;;;;;5039852;28;20098;-75
2024/01/20 00:37:03;;;;;;;18.17;6.60;;;0.40;80.00;;;;;;5046504;28;20049;-75
2024/01/20 00:39:29;;;;;;;18.27;6.90;;;0.40;80.10;;;;;;5035968;28;20463;-75
2024/01/20 00:41:55;;;;;;;23.33;7.60;;;0.40;80.00;;;;;;5043163;28;20045;-75
2024/01/20 00:44:20;;;;;;;15.70;6.87;;;0.30;80.20;;;;;;5024776;28;20391;-77
2024/01/20 00:46:46;;;;;;;20.50;8.13;;;0.30;80.30;;;;;;5043540;28;20052;-76
2024/01/20 00:49:12;;;;;;;19.80;7.97;;;0.40;80.30;;;;;;5028376;28;20037;-75
2024/01/20 00:51:37;;;;;;;22.00;7.77;;;0.40;80.40;;;;;;5045958;28;20048;-75
2024/01/20 00:54:03;;;;;;;18.40;7.43;;;0.40;80.40;;;;;;5023966;28;20114;-75
2024/01/20 00:56:29;;;;;;;18.60;7.60;;;0.40;80.40;;;;;;5045850;28;20068;-76
2024/01/20 00:58:54;;;;;;;20.63;7.60;;;0.30;80.30;;;;;;5020502;28;20067;-76
2024/01/20 01:01:20;;;;;;;23.37;7.50;;;0.30;80.30;;;;;;5044782;28;20094;-74
2024/01/20 01:03:46;;;;;;;21.90;8.90;;;0.30;80.40;;;;;;5044611;28;20045;-75
2024/01/20 01:06:11;;;;;;;21.70;8.90;;;0.20;80.50;;;;;;5045813;28;20507;-76
2024/01/20 01:08:37;;;;;;;21.90;9.33;;;0.30;80.70;;;;;;5037591;28;20901;-76
2024/01/20 01:11:03;;;;;;;21.30;9.03;;;0.30;80.80;;;;;;5028092;28;20072;-74
2024/01/20 01:13:29;;;;;;;22.40;8.80;;;0.30;80.70;;;;;;5028264;28;20100;-76
2024/01/20 01:15:55;;;;;;;19.37;8.83;;;0.30;80.80;;;;;;5045829;28;20119;-75
2024/01/20 01:18:20;;;;;;;19.70;9.27;;;0.30;80.80;;;;;;5039886;28;20523;-77
2024/01/20 01:20:46;;;;;;;18.33;9.17;;;0.30;80.70;;;;;;5045527;28;20049;-76
2024/01/20 01:23:12;;;;;;;24.13;9.73;;;0.40;80.80;;;;;;5045990;28;20497;-75
2024/01/20 01:25:38;;;;;;;25.07;9.37;;;0.40;80.80;;;;;;5044743;28;20060;-75
2024/01/20 01:28:04;;;;;;;32.50;9.10;;;0.40;80.80;;;;;;5028977;28;20045;-75
2024/01/20 01:30:30;;;;;;;19.50;9.33;;;0.40;80.80;;;;;;5030729;28;20112;-75
2024/01/20 01:32:55;;;;;;;26.83;9.63;;;0.40;80.70;;;;;;5029009;28;20205;-77
2024/01/20 01:35:21;;;;;;;28.63;9.80;;;0.40;80.80;;;;;;5045304;28;20045;-77
2024/01/20 01:37:47;;;;;;;22.07;10.17;;;0.40;80.70;;;;;;5045363;28;20045;-76
2024/01/20 01:40:13;;;;;;;19.67;9.37;;;0.40;80.70;;;;;;5027535;28;20041;-75
2024/01/20 01:42:38;;;;;;;23.93;8.90;;;0.40;80.70;;;;;;5045246;28;20041;-75
2024/01/20 01:45:05;;;;;;;22.17;9.17;;;0.40;80.70;;;;;;5045892;28;20041;-75
2024/01/20 01:47:31;;;;;;;20.17;9.53;;;0.40;80.70;;;;;;5046117;28;20055;-75
2024/01/20 01:49:57;;;;;;;17.87;9.37;;;0.30;80.70;;;;;;5045629;28;20106;-74
2024/01/20 01:52:23;;;;;;;19.97;9.57;;;0.40;80.80;;;;;;5029861;28;20053;-75
2024/01/20 01:54:50;;;;;;;21.33;10.20;;;0.40;80.70;;;;;;5045090;28;20147;-75
2024/01/20 01:57:17;;;;;;;20.83;9.13;;;0.30;80.70;;;;;;5026891;28;20049;-74
2024/01/20 01:59:45;;;;;;;17.33;8.83;;;0.30;80.70;;;;;;5027997;28;20575;-74
2024/01/20 02:02:11;;;;;;;24.10;9.50;;;0.40;80.70;;;;;;5010247;28;20052;-74
2024/01/20 02:04:37;;;;;;;18.90;9.20;;;0.30;80.70;;;;;;5043316;28;20049;-76
2024/01/20 02:07:03;;;;;;;21.97;9.17;;;0.40;80.80;;;;;;5026966;28;20041;-74
2024/01/20 02:09:31;;;;;;;18.07;8.57;;;0.40;80.70;;;;;;5045362;28;20056;-74
2024/01/20 02:11:57;;;;;;;16.93;9.00;;;0.40;80.60;;;;;;5026487;28;20433;-74
2024/01/20 02:14:23;;;;;;;22.23;8.87;;;0.40;80.50;;;;;;5045202;28;20053;-74
2024/01/20 02:16:49;;;;;;;23.57;8.77;;;0.30;80.50;;;;;;5043899;28;20112;-75
2024/01/20 02:19:15;;;;;;;21.67;8.90;;;0.30;80.50;;;;;;5044143;28;21022;-73
2024/01/20 02:21:41;;;;;;;23.37;8.87;;;0.30;80.50;;;;;;5023675;28;20071;-75
2024/01/20 02:24:09;;;;;;;19.00;8.60;;;0.30;80.50;;;;;;5043789;28;20131;-75
2024/01/20 02:26:35;;;;;;;20.10;8.40;;;0.30;80.50;;;;;;5014304;28;20042;-75
2024/01/20 02:29:01;;;;;;;21.57;9.57;;;0.20;80.40;;;;;;5024292;28;20385;-75
2024/01/20 02:31:26;;;;;;;22.03;9.43;;;0.20;80.30;;;;;;5031342;28;20045;-74
2024/01/20 02:33:52;;;;;;;25.60;9.50;;;0.20;80.70;;;;;;5048381;28;20037;-75
2024/01/20 02:36:18;;;;;;;23.53;8.80;;;0.20;80.70;;;;;;5044557;28;20080;-76
2024/01/20 02:38:43;;;;;;;23.27;8.70;;;0.30;80.70;;;;;;5044747;28;20041;-74
2024/01/20 02:41:09;;;;;;;19.10;8.60;;;0.30;80.60;;;;;;5043929;28;20567;-75
2024/01/20 02:43:35;;;;;;;19.57;9.60;;;0.30;80.60;;;;;;5027266;28;20518;-74
2024/01/20 02:46:00;;;;;;;22.40;9.70;;;0.30;80.50;;;;;;5044143;28;20041;-75
2024/01/20 02:48:26;;;;;;;17.80;10.20;;;0.30;80.50;;;;;;5044744;28;20590;-74
2024/01/20 02:50:52;;;;;;;23.50;10.23;;;0.30;80.50;;;;;;5043902;28;20052;-74
2024/01/20 02:53:17;;;;;;;24.40;9.87;;;0.30;80.60;;;;;;5026762;28;20276;-74
2024/01/20 02:55:43;;;;;;;23.40;10.70;;;0.40;80.50;;;;;;5041239;28;20148;-78
2024/01/20 02:58:09;;;;;;;26.63;10.33;;;0.40;80.50;;;;;;5022546;28;20116;-74
2024/01/20 03:00:34;;;;;;;25.30;10.20;;;0.40;80.40;;;;;;5044227;28;20052;-74
2024/01/20 03:03:00;;;;;;;22.07;11.80;;;0.40;80.40;;;;;;5043781;28;20059;-75
2024/01/20 03:05:26;;;;;;;21.57;11.33;;;0.40;80.40;;;;;;5043935;28;20544;-75
2024/01/20 03:07:51;;;;;;;24.27;11.93;;;0.40;80.30;;;;;;5043592;28;20931;-74
2024/01/20 03:10:17;;;;;;;28.10;11.47;;;0.40;80.20;;;;;;5026127;28;20119;-74
2024/01/20 03:12:43;;;;;;;26.97;11.77;;;0.30;80.20;;;;;;5026234;28;20595;-75
2024/01/20 03:15:09;;;;;;;21.93;11.87;;;0.30;80.00;;;;;;5044169;28;20435;-74
2024/01/20 03:17:34;;;;;;;28.10;13.87;;;0.20;80.10;;;;;;5044403;28;20388;-75
2024/01/20 03:20:00;;;;;;;32.00;14.37;;;0.10;80.20;;;;;;5042084;28;20051;-76
2024/01/20 03:22:26;;;;;;;29.97;15.27;;;0.00;80.30;;;;;;5036603;28;20058;-74
2024/01/20 03:24:51;;;;;;;28.27;15.20;;;0.00;80.40;;;;;;5027627;28;20471;-73
2024/01/20 03:27:18;;;;;;;26.77;15.57;;;0.00;80.50;;;;;;5031338;28;20497;-74
2024/01/20 03:29:43;;;;;;;29.47;17.23;;;-0.10;80.50;;;;;;5038518;28;20044;-73
2024/01/20 03:32:10;;;;;;;31.57;17.70;;;-0.10;80.50;;;;;;5025667;28;20094;-74
2024/01/20 03:34:36;;;;;;;26.33;18.87;;;-0.20;80.50;;;;;;5023267;28;20053;-73
2024/01/20 03:37:02;;;;;;;32.07;19.33;;;-0.20;80.80;;;;;;5017752;28;20052;-75
2024/01/20 03:39:28;;;;;;;34.43;20.27;;;-0.30;80.80;;;;;;5044350;28;20075;-76
2024/01/20 03:41:53;;;;;;;35.33;21.93;;;-0.30;81.00;;;;;;5020820;28;20041;-74
2024/01/20 03:44:19;;;;;;;42.20;23.37;;;-0.30;81.20;;;;;;5025742;28;20075;-75
2024/01/20 03:46:44;;;;;;;39.47;23.97;;;-0.40;81.40;;;;;;5025677;28;20064;-74
2024/01/20 03:49:10;;;;;;;41.27;24.93;;;-0.30;81.50;;;;;;5026225;28;20041;-74
2024/01/20 03:51:36;;;;;;;44.10;25.27;;;-0.40;81.50;;;;;;5044131;28;20114;-74
2024/01/20 03:54:04;;;;;;;43.37;26.37;;;-0.40;81.60;;;;;;5044526;28;20041;-74
2024/01/20 03:56:30;;;;;;;41.60;27.27;;;-0.40;81.70;;;;;;5043952;28;20129;-74
2024/01/20 03:58:55;;;;;;;43.57;27.93;;;-0.40;81.60;;;;;;5025320;28;20048;-74
2024/01/20 04:01:21;;;;;;;48.03;28.73;;;-0.40;81.60;;;;;;5042652;28;20049;-73
2024/01/20 04:03:47;;;;;;;44.90;27.67;;;-0.40;81.70;;;;;;5033920;28;20045;-73
2024/01/20 04:06:12;;;;;;;49.23;27.70;;;-0.50;81.60;;;;;;5025407;28;20511;-73
2024/01/20 04:08:39;;;;;;;42.90;26.83;;;-0.50;81.70;;;;;;5035079;28;20111;-74
2024/01/20 04:11:05;;;;;;;42.70;29.03;;;-0.50;81.70;;;;;;5040458;28;20040;-73
2024/01/20 04:13:31;;;;;;;45.93;29.73;;;-0.50;81.80;;;;;;5040211;28;20064;-73
2024/01/20 04:15:56;;;;;;;47.83;30.57;;;-0.50;81.80;;;;;;5038039;28;20549;-73
2024/01/20 04:18:22;;;;;;;46.10;29.33;;;-0.50;81.90;;;;;;5040288;28;20136;-73
2024/01/20 04:20:48;;;;;;;48.97;28.70;;;-0.50;81.90;;;;;;5041977;28;20073;-73
2024/01/20 04:23:14;;;;;;;46.43;28.73;;;-0.50;81.80;;;;;;5023899;28;20103;-74
2024/01/20 04:25:39;;;;;;;44.70;28.53;;;-0.50;81.80;;;;;;5017647;28;20045;-74
2024/01/20 04:28:05;;;;;;;46.70;29.33;;;-0.50;81.60;;;;;;5024364;28;20156;-74
2024/01/20 04:30:31;;;;;;;52.80;28.73;;;-0.60;81.70;;;;;;5026012;28;20053;-74
2024/01/20 04:32:56;;;;;;;52.43;29.20;;;-0.60;81.70;;;;;;5031447;28;20476;-74
2024/01/20 04:35:22;;;;;;;46.67;28.13;;;-0.60;81.70;;;;;;5029381;28;20056;-75
2024/01/20 04:37:47;;;;;;;48.00;29.90;;;-0.60;81.70;;;;;;5025056;28;20043;-73
2024/01/20 04:40:13;;;;;;;49.73;30.03;;;-0.60;81.80;;;;;;5026955;28;20156;-73
2024/01/20 04:42:39;;;;;;;47.60;30.80;;;-0.60;81.90;;;;;;5043503;28;20037;-73
2024/01/20 04:45:05;;;;;;;49.70;31.63;;;-0.60;81.80;;;;;;5047413;28;20076;-73
2024/01/20 04:47:32;;;;;;;49.03;30.40;;;-0.60;81.80;;;;;;5028164;28;20056;-74
2024/01/20 04:49:58;;;;;;;50.20;30.30;;;-0.60;81.80;;;;;;5028766;28;20072;-73
2024/01/20 04:52:24;;;;;;;49.90;31.40;;;-0.60;81.80;;;;;;5046709;28;20064;-72
2024/01/20 04:54:52;;;;;;;55.23;29.33;;;-0.70;81.80;;;;;;5046842;28;20041;-73
2024/01/20 04:57:19;;;;;;;47.30;30.40;;;-0.70;81.80;;;;;;5028981;28;20029;-73
2024/01/20 04:59:45;;;;;;;44.90;30.03;;;-0.70;81.80;;;;;;5028696;28;20037;-73
2024/01/20 05:02:10;;;;;;;50.20;30.07;;;-0.70;81.70;;;;;;5027445;28;20044;-74
2024/01/20 05:04:36;;;;;;;52.37;31.00;;;-0.70;81.80;;;;;;5046430;28;20045;-73
2024/01/20 05:07:02;;;;;;;45.07;29.10;;;-0.70;81.80;;;;;;5046226;28;20056;-73
2024/01/20 05:09:27;;;;;;;47.43;30.60;;;-0.70;81.80;;;;;;5028976;28;20120;-73
2024/01/20 05:11:53;;;;;;;47.53;30.17;;;-0.70;81.70;;;;;;5045639;28;20072;-73
2024/01/20 05:14:19;;;;;;;53.03;30.67;;;-0.70;81.90;;;;;;5037490;28;20466;-73
2024/01/20 05:16:44;;;;;;;49.87;30.40;;;-0.70;81.80;;;;;;5045597;28;20041;-74
2024/01/20 05:19:10;;;;;;;48.93;30.60;;;-0.70;81.80;;;;;;5032964;28;20042;-74
2024/01/20 05:21:37;;;;;;;57.03;32.13;;;-0.70;81.80;;;;;;5028111;28;20183;-74
2024/01/20 05:24:04;;;;;;;51.80;31.33;;;-0.70;81.80;;;;;;5036006;28;20136;-73
2024/01/20 05:26:30;;;;;;;52.63;31.37;;;-0.70;81.90;;;;;;5041976;28;20048;-74
2024/01/20 05:28:56;;;;;;;53.97;31.77;;;-0.70;81.80;;;;;;5020610;28;20033;-74
2024/01/20 05:31:24;;;;;;;52.80;31.13;;;-0.70;81.80;;;;;;5032601;28;20043;-73
2024/01/20 05:33:50;;;;;;;52.23;30.07;;;-0.70;81.80;;;;;;5032207;28;20049;-74
2024/01/20 05:36:16;;;;;;;48.03;30.90;;;-0.70;81.70;;;;;;5045923;28;20465;-74
2024/01/20 05:38:41;;;;;;;52.73;29.70;;;-0.70;81.90;;;;;;5042946;28;20059;-74
2024/01/20 05:41:08;;;;;;;52.80;30.80;;;-0.70;81.90;;;;;;5034171;28;20426;-73
2024/01/20 05:43:33;;;;;;;51.60;29.67;;;-0.70;81.80;;;;;;5043037;28;20053;-75
2024/01/20 05:46:03;;;;;;;52.23;30.77;;;-0.70;81.80;;;;;;5034492;28;20413;-73
2024/01/20 05:48:30;;;;;;;54.50;30.10;;;-0.70;81.70;;;;;;5045262;28;20048;-74
2024/01/20 05:50:56;;;;;;;51.87;30.03;;;-0.60;81.70;;;;;;5043528;28;20369;-74
2024/01/20 05:53:22;;;;;;;50.63;29.90;;;-0.60;81.60;;;;;;5043612;28;20395;-73
2024/01/20 05:55:47;;;;;;;53.40;30.67;;;-0.60;81.60;;;;;;5043189;28;20056;-73
2024/01/20 05:58:14;;;;;;;54.83;30.47;;;-0.70;81.40;;;;;;5027435;28;20116;-73
2024/01/20 06:00:39;;;;;;;54.77;30.80;;;-0.70;81.50;;;;;;5044447;28;20123;-73
2024/01/20 06:03:05;;;;;;;52.23;29.23;;;-0.70;81.50;;;;;;5045213;28;20547;-73
2024/01/20 06:05:31;;;;;;;55.27;32.20;;;-0.70;81.50;;;;;;5044365;28;20534;-75
2024/01/20 06:07:56;;;;;;;55.53;28.93;;;-0.70;81.50;;;;;;5040027;28;20124;-73
2024/01/20 06:10:22;;;;;;;52.30;30.63;;;-0.70;81.50;;;;;;5038393;28;20053;-73
2024/01/20 06:12:48;;;;;;;55.80;31.33;;;-0.70;81.60;;;;;;5023710;28;20551;-75
2024/01/20 06:15:14;;;;;;;49.80;29.80;;;-0.70;81.50;;;;;;5023805;28;20479;-73
2024/01/20 06:17:39;;;;;;;54.47;29.93;;;-0.70;81.60;;;;;;5020141;28;20128;-73
2024/01/20 06:20:06;;;;;;;56.33;30.83;;;-0.70;81.40;;;;;;5022450;28;20046;-73
2024/01/20 06:22:32;;;;;;;45.90;29.67;;;-0.70;81.50;;;;;;5020777;28;20103;-74
2024/01/20 06:24:58;;;;;;;48.77;29.27;;;-0.70;81.40;;;;;;5019721;28;20488;-73
2024/01/20 06:27:23;;;;;;;53.60;31.27;;;-0.60;81.40;;;;;;5019347;28;20053;-74
2024/01/20 06:29:49;;;;;;;55.57;29.47;;;-0.60;81.30;;;;;;5018948;28;20666;-72
2024/01/20 06:32:16;;;;;;;53.10;30.67;;;-0.60;81.20;;;;;;5014624;28;20128;-73
2024/01/20 06:34:41;;;;;;;52.60;28.67;;;-0.70;81.20;;;;;;5023975;28;20107;-73
2024/01/20 06:37:07;;;;;;;57.07;30.80;;;-0.70;81.10;;;;;;5022888;28;20042;-73
2024/01/20 06:39:33;;;;;;;59.37;30.47;;;-0.70;81.00;;;;;;5025544;28;20069;-73
2024/01/20 06:41:58;;;;;;;57.07;29.27;;;-0.70;81.00;;;;;;5023654;28;20111;-73
2024/01/20 06:44:24;;;;;;;50.20;28.40;;;-0.70;81.10;;;;;;5022289;28;20038;-73
2024/01/20 06:46:50;;;;;;;53.00;29.30;;;-0.70;81.10;;;;;;5024561;28;20049;-73
2024/01/20 06:49:16;;;;;;;53.37;28.60;;;-0.80;81.00;;;;;;5024104;28;20057;-73
2024/01/20 06:51:45;;;;;;;55.50;28.63;;;-0.90;81.00;;;;;;5022736;28;20034;-73
2024/01/20 06:54:11;;;;;;;53.53;28.03;;;-0.90;81.10;;;;;;5021004;28;20503;-75
2024/01/20 06:56:36;;;;;;;52.30;28.80;;;-0.90;81.00;;;;;;5019072;28;20059;-75
2024/01/20 06:59:02;;;;;;;52.30;28.00;;;-0.90;80.90;;;;;;5021314;28;20053;-73
2024/01/20 07:01:31;;;;;;;49.93;27.83;;;-0.90;80.90;;;;;;5021703;28;20361;-73
2024/01/20 07:03:57;;;;;;;49.50;27.37;;;-1.00;81.00;;;;;;5028787;28;20041;-73
2024/01/20 07:06:26;;;;;;;50.20;27.60;;;-0.90;81.10;;;;;;5015776;28;20046;-73
2024/01/20 07:08:52;;;;;;;52.50;28.10;;;-1.00;81.10;;;;;;5019500;28;20042;-73
2024/01/20 07:11:17;;;;;;;46.47;26.57;;;-0.90;81.10;;;;;;5019332;28;20050;-73
2024/01/20 07:13:43;;;;;;;55.60;26.93;;;-0.90;81.00;;;;;;5023258;28;20068;-73
2024/01/20 07:16:14;;;;;;;57.33;27.73;;;-0.90;81.10;;;;;;5018039;28;20048;-73
2024/01/20 07:18:41;;;;;;;49.88;27.17;;;-0.90;81.10;;;;;;5017927;28;20162;-75
2024/01/20 07:21:07;;;;;;;56.17;28.53;;;-0.90;81.10;;;;;;5019457;28;20040;-73
2024/01/20 07:23:33;;;;;;;58.13;28.83;;;-0.90;81.10;;;;;;5018143;28;20381;-74
2024/01/20 07:25:59;;;;;;;52.07;28.57;;;-0.90;81.10;;;;;;5033338;28;20045;-73
2024/01/20 07:28:25;;;;;;;55.03;29.97;;;-0.90;81.10;;;;;;5021500;28;20037;-73
2024/01/20 07:30:51;;;;;;;60.17;30.77;;;-0.90;81.10;;;;;;5020084;28;20045;-75
2024/01/20 07:33:17;;;;;;;59.37;31.23;;;-0.80;81.10;;;;;;5021155;28;20053;-74
2024/01/20 07:35:43;;;;;;;59.27;29.27;;;-0.80;81.10;;;;;;5021091;28;20133;-72
2024/01/20 07:38:09;;;;;;;59.80;30.77;;;-0.90;81.10;;;;;;5036151;28;20993;-73
2024/01/20 07:40:34;;;;;;;62.87;32.90;;;-0.80;81.10;;;;;;5025468;28;20508;-73
2024/01/20 07:43:00;;;;;;;66.03;32.70;;;-0.80;81.20;;;;;;5014559;28;20049;-73
2024/01/20 07:45:31;;;;;;;62.27;33.00;;;-0.80;81.20;;;;;;5020368;28;20064;-74
2024/01/20 07:47:58;;;;;;;52.80;25.63;;;-0.70;81.20;;;;;;5018887;28;20056;-73
2024/01/20 07:50:23;;;;;;;61.67;31.87;;;-0.70;81.20;;;;;;5019574;28;20439;-73
2024/01/20 07:52:49;;;;;;;56.23;30.87;;;-0.70;81.20;;;;;;5019950;28;20042;-74
2024/01/20 07:55:15;;;;;;;55.00;30.93;;;-0.70;81.20;;;;;;5020527;28;20083;-76
2024/01/20 07:57:41;;;;;;;63.97;32.73;;;-0.60;81.20;;;;;;5021384;28;20073;-74
2024/01/20 08:00:09;;;;;;;54.97;32.80;;;-0.60;81.20;;;;;;5020512;28;20292;-73
2024/01/20 08:02:35;;;;;;;60.43;32.83;;;-0.60;81.10;;;;;;5021658;28;20045;-73
2024/01/20 08:05:01;;;;;;;68.40;32.53;;;-0.50;81.00;;;;;;5021459;28;20045;-73
2024/01/20 08:07:26;;;;;;;63.43;32.20;;;-0.50;80.90;;;;;;5019270;28;20499;-73
2024/01/20 08:09:53;;;;;;;65.07;32.77;;;-0.50;80.90;;;;;;5024983;28;20056;-73
2024/01/20 08:12:19;;;;;;;59.27;31.33;;;-0.50;80.90;;;;;;5023652;28;20583;-73
2024/01/20 08:14:44;;;;;;;60.80;31.33;;;-0.50;80.70;;;;;;5025676;28;20331;-74
2024/01/20 08:17:10;;;;;;;63.13;33.93;;;-0.40;80.70;;;;;;5009492;28;20050;-73
2024/01/20 08:19:36;;;;;;;60.20;32.33;;;-0.40;80.60;;;;;;5004060;28;20409;-74
2024/01/20 08:22:02;;;;;;;62.63;33.10;;;-0.40;80.60;;;;;;4999525;28;20145;-75
2024/01/20 08:24:27;;;;;;;60.30;33.10;;;-0.40;80.50;;;;;;5022094;28;20047;-74
2024/01/20 08:26:53;;;;;;;66.00;34.70;;;-0.40;80.60;;;;;;5016874;28;20485;-73
2024/01/20 08:29:19;;;;;;;62.07;34.07;;;-0.40;80.80;;;;;;5025618;28;20041;-73
2024/01/20 08:31:45;;;;;;;64.63;34.13;;;-0.50;80.80;;;;;;5022665;28;20250;-74
2024/01/20 08:34:11;;;;;;;68.63;34.70;;;-0.40;80.90;;;;;;5026404;28;20046;-74
2024/01/20 08:36:37;;;;;;;66.03;34.23;;;-0.40;81.10;;;;;;5024549;28;20041;-73
2024/01/20 08:39:02;;;;;;;66.57;35.33;;;-0.40;81.20;;;;;;5024207;28;20488;-73
2024/01/20 08:41:28;;;;;;;63.73;34.43;;;-0.30;81.20;;;;;;5022894;28;20045;-74
2024/01/20 08:43:54;;;;;;;65.77;36.17;;;-0.30;81.30;;;;;;5023002;28;20107;-73
2024/01/20 08:46:20;;;;;;;66.43;35.27;;;-0.30;81.40;;;;;;5023202;28;20227;-74
2024/01/20 08:48:45;;;;;;;69.47;35.90;;;-0.30;81.40;;;;;;5023729;28;20048;-74
2024/01/20 08:51:11;;;;;;;73.07;36.47;;;-0.20;81.50;;;;;;5023712;28;20049;-74
2024/01/20 08:53:39;;;;;;;66.50;36.87;;;-0.20;81.50;;;;;;5022335;28;20087;-73
2024/01/20 08:56:05;;;;;;;70.27;36.67;;;-0.20;81.60;;;;;;5024151;28;20041;-73
2024/01/20 08:58:31;;;;;;;67.77;37.33;;;-0.10;81.60;;;;;;5023932;28;20060;-74
2024/01/20 09:00:56;;;;;;;64.70;37.13;;;-0.10;81.60;;;;;;5022568;28;20045;-73
2024/01/20 09:03:22;;;;;;;68.30;36.13;;;-0.10;81.60;;;;;;5024173;28;20049;-72
2024/01/20 09:05:48;;;;;;;65.67;36.47;;;-0.10;81.70;;;;;;5022803;28;20049;-74
2024/01/20 09:08:14;;;;;;;67.23;37.33;;;-0.10;81.80;;;;;;5023788;28;20038;-74
2024/01/20 09:10:40;;;;;;;68.10;36.60;;;-0.10;81.70;;;;;;5039350;28;20113;-73
2024/01/20 09:13:07;;;;;;;67.57;37.07;;;0.00;81.80;;;;;;5014520;28;20049;-73
2024/01/20 09:15:33;;;;;;;63.60;35.40;;;0.00;81.70;;;;;;5024292;28;20091;-74
2024/01/20 09:17:58;;;;;;;68.77;36.73;;;-0.10;81.70;;;;;;5023639;28;20050;-74
2024/01/20 09:20:24;;;;;;;69.47;35.83;;;0.00;81.70;;;;;;5018885;28;20069;-74
2024/01/20 09:22:50;;;;;;;61.83;35.83;;;-0.10;81.70;;;;;;5024284;28;20053;-74
2024/01/20 09:25:16;;;;;;;66.10;36.10;;;0.00;81.70;;;;;;5022830;28;20374;-74
2024/01/20 09:27:42;;;;;;;71.90;36.17;;;0.00;81.80;;;;;;5022035;28;20041;-73
2024/01/20 09:30:09;;;;;;;66.90;35.67;;;0.00;81.80;;;;;;5029688;28;20088;-73
2024/01/20 09:32:35;;;;;;;68.27;35.97;;;0.00;81.80;;;;;;5030752;28;20085;-74
2024/01/20 09:35:01;;;;;;;66.83;35.37;;;0.00;81.90;;;;;;5002477;28;20136;-74
2024/01/20 09:37:26;;;;;;;68.63;35.57;;;0.00;81.80;;;;;;5019513;28;20041;-73
2024/01/20 09:39:52;;;;;;;68.73;36.13;;;0.00;81.80;;;;;;5043715;28;20072;-74
2024/01/20 09:42:18;;;;;;;63.00;34.70;;;0.00;81.80;;;;;;5042105;28;20049;-73
2024/01/20 09:44:44;;;;;;;68.70;34.67;;;0.00;81.80;;;;;;5017242;28;20042;-74
2024/01/20 09:47:11;;;;;;;74.00;36.30;;;0.00;81.80;;;;;;5022131;28;20370;-74
2024/01/20 09:49:38;;;;;;;69.97;35.17;;;0.10;81.80;;;;;;5038471;28;20040;-74
2024/01/20 09:52:23;;;;;;;60.40;33.73;;;0.10;81.80;;;;;;5042639;28;20043;-74
2024/01/20 09:55:17;;;;;;;64.83;34.77;;;0.20;81.80;;;;;;5025613;28;20103;-73
2024/01/20 09:57:45;;;;;;;65.53;35.10;;;0.20;81.80;;;;;;5041109;28;20392;-75
2024/01/20 10:00:13;;;;;;;62.43;33.30;;;0.30;81.80;;;;;;5043359;28;20048;-74
2024/01/20 10:02:40;;;;;;;67.57;34.67;;;0.30;81.70;;;;;;5042473;28;20057;-73
2024/01/20 10:05:10;;;;;;;66.17;35.43;;;0.30;81.70;;;;;;5014581;28;20358;-73
2024/01/20 10:07:35;;;;;;;62.00;32.93;;;0.30;81.60;;;;;;5043583;28;20052;-74
2024/01/20 10:10:02;;;;;;;54.70;32.50;;;0.40;81.60;;;;;;4996525;28;20049;-74
2024/01/20 10:12:28;;;;;;;60.77;32.13;;;0.40;81.60;;;;;;5022365;28;20056;-74
2024/01/20 10:14:54;;;;;;;57.00;31.30;;;0.50;81.50;;;;;;5034109;28;20470;-73
2024/01/20 10:17:20;;;;;;;57.53;31.03;;;0.50;81.50;;;;;;5041526;28;20087;-74
2024/01/20 10:19:45;;;;;;;53.47;31.37;;;0.50;81.40;;;;;;5047842;28;20067;-74
2024/01/20 10:22:12;;;;;;;58.47;29.97;;;0.60;81.40;;;;;;5041786;28;20045;-74
2024/01/20 10:24:52;;;;;;;54.77;30.13;;;0.60;81.30;;;;;;5044097;28;20053;-74
2024/01/20 10:27:25;;;;;;;56.43;31.00;;;0.60;81.20;;;;;;5043069;28;20110;-74
2024/01/20 10:29:51;;;;;;;60.67;31.53;;;0.60;81.20;;;;;;5023523;28;20535;-75
2024/01/20 10:32:17;;;;;;;57.57;30.33;;;0.60;81.20;;;;;;5041816;28;20674;-74
2024/01/20 10:34:44;;;;;;;61.97;32.00;;;0.60;81.20;;;;;;5025074;28;20515;-74
2024/01/20 10:37:11;;;;;;;62.23;31.00;;;0.60;81.20;;;;;;5022728;28;20037;-74
2024/01/20 10:39:44;;;;;;;58.47;31.43;;;0.60;81.20;;;;;;5030949;28;20085;-74
2024/01/20 10:42:15;;;;;;;52.17;28.47;;;0.60;81.20;;;;;;5005470;28;20046;-74
2024/01/20 10:45:11;;;;;;;55.43;29.47;;;0.60;81.20;;;;;;5018642;28;20128;-75
2024/01/20 10:47:41;;;;;;;55.87;29.80;;;0.60;81.10;;;;;;4997314;28;20041;-74
2024/01/20 10:50:08;;;;;;;53.03;29.17;;;0.70;81.20;;;;;;5037409;28;20048;-75
2024/01/20 10:52:37;;;;;;;54.60;28.27;;;0.70;81.10;;;;;;5034641;28;20049;-75
2024/01/20 10:55:05;;;;;;;53.23;27.47;;;0.80;81.20;;;;;;5040853;28;20102;-74
2024/01/20 10:57:31;;;;;;;55.83;29.07;;;0.80;81.10;;;;;;5021696;28;20094;-74
2024/01/20 11:00:02;;;;;;;49.23;27.20;;;0.80;81.10;;;;;;5023874;28;20201;-75
2024/01/20 11:02:28;;;;;;;52.03;27.07;;;0.80;81.10;;;;;;5036948;28;20045;-75
2024/01/20 11:04:53;;;;;;;52.70;27.33;;;0.80;81.10;;;;;;5022181;28;20044;-76
2024/01/20 11:07:23;;;;;;;50.27;26.63;;;0.90;81.00;;;;;;5038999;28;20475;-75
2024/01/20 11:10:01;;;;;;;51.10;27.80;;;0.90;81.00;;;;;;5038505;28;20057;-74
2024/01/20 11:12:29;;;;;;;55.70;27.83;;;1.00;81.00;;;;;;5034737;28;20044;-75
2024/01/20 11:14:57;;;;;;;51.73;27.40;;;1.00;80.90;;;;;;5039169;28;20049;-77
2024/01/20 11:17:23;;;;;;;47.97;26.77;;;1.00;80.90;;;;;;5002015;28;20048;-76
2024/01/20 11:19:52;;;;;;;54.43;27.57;;;1.10;80.80;;;;;;5041448;28;20077;-75
2024/01/20 11:22:38;;;;;;;42.77;25.70;;;1.10;80.60;;;;;;5023698;28;20041;-75
2024/01/20 11:25:07;;;;;;;56.03;27.20;;;1.20;80.50;;;;;;5042190;28;20052;-75
2024/01/20 11:27:47;;;;;;;48.23;26.10;;;1.20;80.20;;;;;;5024786;28;20062;-75
2024/01/20 11:30:13;;;;;;;46.23;26.67;;;1.20;80.10;;;;;;5028194;28;20341;-75
2024/01/20 11:32:39;;;;;;;54.17;27.20;;;1.20;79.90;;;;;;5029671;28;20056;-75
2024/01/20 11:35:05;;;;;;;46.73;26.43;;;1.20;79.80;;;;;;5023216;28;20052;-75
2024/01/20 11:37:34;;;;;;;50.60;26.93;;;1.20;79.70;;;;;;5026145;28;20423;-74
2024/01/20 11:40:05;;;;;;;47.80;27.30;;;1.20;79.70;;;;;;5043715;28;20427;-75
2024/01/20 11:42:33;;;;;;;49.50;27.53;;;1.20;79.60;;;;;;5005124;28;20052;-76
2024/01/20 11:45:00;;;;;;;54.10;28.23;;;1.10;79.50;;;;;;5043869;28;20052;-75
2024/01/20 11:47:27;;;;;;;54.20;28.70;;;1.10;79.40;;;;;;5024863;28;20090;-75
2024/01/20 11:49:54;;;;;;;59.80;30.57;;;1.10;79.60;;;;;;5044065;28;20077;-75
2024/01/20 11:52:21;;;;;;;57.87;30.90;;;1.10;79.70;;;;;;5024647;28;20053;-75
2024/01/20 11:54:47;;;;;;;65.17;33.03;;;1.00;79.60;;;;;;5043171;28;20169;-75
2024/01/20 11:57:23;;;;;;;58.47;33.27;;;1.00;79.80;;;;;;5016081;28;20052;-74
2024/01/20 11:59:49;;;;;;;64.53;33.90;;;1.00;79.90;;;;;;5021710;28;20080;-75
2024/01/20 12:02:18;;;;;;;63.97;33.43;;;1.00;79.90;;;;;;5030571;28;20049;-76
2024/01/20 12:04:44;;;;;;;65.27;35.87;;;1.00;80.00;;;;;;5043135;28;20059;-75
2024/01/20 12:07:10;;;;;;;64.07;36.47;;;1.00;80.10;;;;;;5041305;28;20045;-75
2024/01/20 12:09:35;;;;;;;66.97;37.63;;;1.10;80.20;;;;;;5042490;28;20550;-75
2024/01/20 12:12:02;;;;;;;71.23;36.87;;;1.10;80.20;;;;;;5043326;28;20041;-75
2024/01/20 12:14:28;;;;;;;72.60;39.20;;;1.10;80.20;;;;;;5042711;28;20600;-74
2024/01/20 12:16:55;;;;;;;71.70;38.73;;;1.10;80.30;;;;;;5042768;28;20041;-76
2024/01/20 12:19:21;;;;;;;68.53;38.57;;;1.20;80.10;;;;;;5037748;28;20045;-75
2024/01/20 12:21:47;;;;;;;66.00;38.20;;;1.20;80.10;;;;;;5039193;28;20042;-76
2024/01/20 12:24:13;;;;;;;71.73;38.83;;;1.30;80.20;;;;;;5029677;28;20076;-76
2024/01/20 12:26:41;;;;;;;69.37;38.07;;;1.40;80.20;;;;;;5025230;28;20053;-76
2024/01/20 12:29:07;;;;;;;67.23;37.23;;;1.40;79.90;;;;;;5043597;28;20396;-74